パリ/シャルル・ド・ゴール の空港の天気 - METARとTAF

シャルル・ド・ゴール国際空港(パリ) ( LFPG / CDG ) - フランス Paris
飛行場実況気象(Metar)
観測時間10/28 17:30 CET (10/28 16:30 UTC)
風向・風速西南西 7m/s
視程10km以上
天気現象
少しの雲 雲底高度 400m
全天の4割程度の雲 雲底高度 790m
全天の8割程度の雲 雲底高度 1010m
気温12℃
湿度88%
気圧1010hPa
METARLFPG 281630Z 24013KT 9999 FEW013 SCT026TCU BKN033 12/10 Q1010 NOSIG
過去の天気等 Google飛行場航空写真 Wunderground天気予報

過去48時間のMETAR

飛行場予報(TAF)
発表時間: 10/28 12:00 CET (10/28 11:00 UTC)
予報対象時間: 28日13時 CET ~ 29日19時 CET
風向・風速南西 8m/s 瞬間風速 13m/s
視程10km以上
全天の8割程度の雲 雲底高度 910m
28日14時 CET ~ 28日17時 CET に一時的に
視程4000m
天気現象弱いしゅう雨
全天の4割程度の塔状積雲 雲底高度 610m
28日16時 CET ~ 28日17時 CET に 確率 30% で一時的に
風向・風速南西 8m/s 瞬間風速 18m/s
視程2500m
天気現象しゅう雨
全天の4割程度の積乱雲 雲底高度 460m
29日3時 CET ~ 29日5時 CET に徐々に
風向・風速西南西 6m/s
29日13時 CET ~ 29日19時 CET に一時的に
全天の8割程度の雲 雲底高度 370m
TAF LFPG 281100Z 2812/2918 22015G25KT 9999 BKN030 TX14/2915Z TN10/2906Z
TEMPO 2813/2816 4000 -SHRA SCT020TCU
PROB30 TEMPO 2815/2816 22015G35KT 2500 SHRA SCT015CB
BECMG 2902/2904 24012KT
TEMPO 2912/2918 BKN012